sensor_id;sensor_type;location;lat;lon;timestamp;P1;durP1;ratioP1;P2;durP2;ratioP2
75508;SDS011;64214;47.250;11.332;2023-01-16T00:00:11;1.92;;;1.30;;
75508;SDS011;64214;47.250;11.332;2023-01-16T00:00:22;1.52;;;1.20;;
75508;SDS011;64214;47.250;11.332;2023-01-16T00:00:33;1.85;;;1.25;;
75508;SDS011;64214;47.250;11.332;2023-01-16T00:00:44;1.90;;;1.30;;
75508;SDS011;64214;47.250;11.332;2023-01-16T00:00:55;2.08;;;1.20;;
75508;SDS011;64214;47.250;11.332;2023-01-16T00:01:07;1.90;;;1.20;;
75508;SDS011;64214;47.250;11.332;2023-01-16T00:01:18;1.58;;;1.20;;
75508;SDS011;64214;47.250;11.332;2023-01-16T00:01:30;1.30;;;1.20;;
75508;SDS011;64214;47.250;11.332;2023-01-16T00:01:41;1.20;;;1.10;;
75508;SDS011;64214;47.250;11.332;2023-01-16T00:01:52;1.70;;;1.30;;
75508;SDS011;64214;47.250;11.332;2023-01-16T00:02:05;1.90;;;1.30;;
75508;SDS011;64214;47.250;11.332;2023-01-16T00:02:16;1.67;;;1.30;;
75508;SDS011;64214;47.250;11.332;2023-01-16T00:02:27;1.65;;;1.30;;
75508;SDS011;64214;47.250;11.332;2023-01-16T00:02:38;1.60;;;1.38;;
75508;SDS011;64214;47.250;11.332;2023-01-16T00:02:50;1.65;;;1.38;;
75508;SDS011;64214;47.250;11.332;2023-01-16T00:03:01;1.52;;;1.40;;
75508;SDS011;64214;47.250;11.332;2023-01-16T00:03:12;1.52;;;1.27;;
75508;SDS011;64214;47.250;11.332;2023-01-16T00:03:23;1.73;;;1.30;;
75508;SDS011;64214;47.250;11.332;2023-01-16T00:03:34;1.92;;;1.40;;
75508;SDS011;64214;47.250;11.332;2023-01-16T00:03:45;1.50;;;1.40;;
75508;SDS011;64214;47.250;11.332;2023-01-16T00:03:56;1.65;;;1.40;;
75508;SDS011;64214;47.250;11.332;2023-01-16T00:04:07;1.77;;;1.50;;
75508;SDS011;64214;47.250;11.332;2023-01-16T00:04:18;1.95;;;1.45;;
75508;SDS011;64214;47.250;11.332;2023-01-16T00:04:30;1.67;;;1.40;;
75508;SDS011;64214;47.250;11.332;2023-01-16T00:04:41;1.95;;;1.25;;
75508;SDS011;64214;47.250;11.332;2023-01-16T00:04:52;1.90;;;1.23;;
75508;SDS011;64214;47.250;11.332;2023-01-16T00:05:03;1.80;;;1.10;;
75508;SDS011;64214;47.250;11.332;2023-01-16T00:05:14;1.40;;;1.10;;
75508;SDS011;64214;47.250;11.332;2023-01-16T00:05:34;1.30;;;1.10;;
75508;SDS011;64214;47.250;11.332;2023-01-16T00:05:45;1.10;;;1.00;;
75508;SDS011;64214;47.250;11.332;2023-01-16T00:05:57;1.20;;;1.05;;
75508;SDS011;64214;47.250;11.332;2023-01-16T00:06:08;1.60;;;1.02;;
75508;SDS011;64214;47.250;11.332;2023-01-16T00:06:19;2.15;;;1.10;;
75508;SDS011;64214;47.250;11.332;2023-01-16T00:06:30;2.03;;;1.13;;
75508;SDS011;64214;47.250;11.332;2023-01-16T00:06:42;1.52;;;1.13;;
75508;SDS011;64214;47.250;11.332;2023-01-16T00:06:53;2.30;;;1.13;;
75508;SDS011;64214;47.250;11.332;2023-01-16T00:07:04;2.53;;;1.10;;
75508;SDS011;64214;47.250;11.332;2023-01-16T00:07:15;2.05;;;1.02;;
75508;SDS011;64214;47.250;11.332;2023-01-16T00:07:27;1.65;;;0.90;;
75508;SDS011;64214;47.250;11.332;2023-01-16T00:07:38;1.60;;;0.90;;
75508;SDS011;64214;47.250;11.332;2023-01-16T00:07:49;1.65;;;1.00;;
75508;SDS011;64214;47.250;11.332;2023-01-16T00:08:00;1.77;;;1.08;;
75508;SDS011;64214;47.250;11.332;2023-01-16T00:08:11;1.70;;;1.02;;
75508;SDS011;64214;47.250;11.332;2023-01-16T00:08:22;1.42;;;1.02;;
75508;SDS011;64214;47.250;11.332;2023-01-16T00:08:33;1.40;;;1.10;;
75508;SDS011;64214;47.250;11.332;2023-01-16T00:08:45;1.95;;;1.20;;
75508;SDS011;64214;47.250;11.332;2023-01-16T00:08:58;2.05;;;1.00;;
75508;SDS011;64214;47.250;11.332;2023-01-16T00:09:09;1.95;;;0.98;;
75508;SDS011;64214;47.250;11.332;2023-01-16T00:09:20;1.48;;;0.90;;
75508;SDS011;64214;47.250;11.332;2023-01-16T00:09:31;1.38;;;0.90;;
75508;SDS011;64214;47.250;11.332;2023-01-16T00:09:42;1.40;;;0.90;;
75508;SDS011;64214;47.250;11.332;2023-01-16T00:09:54;1.40;;;0.98;;
75508;SDS011;64214;47.250;11.332;2023-01-16T00:10:05;1.55;;;1.00;;
75508;SDS011;64214;47.250;11.332;2023-01-16T00:10:16;1.70;;;1.00;;
75508;SDS011;64214;47.250;11.332;2023-01-16T00:10:27;1.73;;;1.02;;
75508;SDS011;64214;47.250;11.332;2023-01-16T00:10:39;1.65;;;1.00;;
75508;SDS011;64214;47.250;11.332;2023-01-16T00:10:50;2.33;;;1.10;;
75508;SDS011;64214;47.250;11.332;2023-01-16T00:11:01;2.10;;;0.98;;
75508;SDS011;64214;47.250;11.332;2023-01-16T00:11:13;2.33;;;1.00;;
75508;SDS011;64214;47.250;11.332;2023-01-16T00:11:24;2.00;;;1.05;;
75508;SDS011;64214;47.250;11.332;2023-01-16T00:11:35;2.05;;;1.20;;
75508;SDS011;64214;47.250;11.332;2023-01-16T00:11:46;1.83;;;1.10;;
75508;SDS011;64214;47.250;11.332;2023-01-16T00:11:57;1.70;;;1.10;;
75508;SDS011;64214;47.250;11.332;2023-01-16T00:12:08;1.58;;;1.00;;
75508;SDS011;64214;47.250;11.332;2023-01-16T00:12:19;1.42;;;1.08;;
75508;SDS011;64214;47.250;11.332;2023-01-16T00:12:31;1.30;;;1.10;;
75508;SDS011;64214;47.250;11.332;2023-01-16T00:12:42;1.48;;;1.20;;
75508;SDS011;64214;47.250;11.332;2023-01-16T00:12:53;1.42;;;1.10;;
75508;SDS011;64214;47.250;11.332;2023-01-16T00:13:04;1.55;;;1.17;;
75508;SDS011;64214;47.250;11.332;2023-01-16T00:13:15;1.77;;;1.08;;
75508;SDS011;64214;47.250;11.332;2023-01-16T00:13:26;1.80;;;1.03;;
75508;SDS011;64214;47.250;11.332;2023-01-16T00:13:38;1.57;;;1.00;;
75508;SDS011;64214;47.250;11.332;2023-01-16T00:13:50;1.42;;;1.15;;
75508;SDS011;64214;47.250;11.332;2023-01-16T00:14:01;1.50;;;1.20;;
75508;SDS011;64214;47.250;11.332;2023-01-16T00:14:12;2.03;;;1.20;;
75508;SDS011;64214;47.250;11.332;2023-01-16T00:14:23;2.35;;;1.20;;
75508;SDS011;64214;47.250;11.332;2023-01-16T00:14:35;2.08;;;1.15;;
75508;SDS011;64214;47.250;11.332;2023-01-16T00:14:46;1.97;;;1.30;;
75508;SDS011;64214;47.250;11.332;2023-01-16T00:14:57;1.90;;;1.20;;
75508;SDS011;64214;47.250;11.332;2023-01-16T00:15:08;2.00;;;1.30;;
75508;SDS011;64214;47.250;11.332;2023-01-16T00:15:19;2.00;;;1.38;;
75508;SDS011;64214;47.250;11.332;2023-01-16T00:15:30;1.75;;;1.42;;
75508;SDS011;64214;47.250;11.332;2023-01-16T00:15:45;1.63;;;1.48;;
75508;SDS011;64214;47.250;11.332;2023-01-16T00:15:57;2.15;;;1.42;;
75508;SDS011;64214;47.250;11.332;2023-01-16T00:16:08;2.40;;;1.45;;
75508;SDS011;64214;47.250;11.332;2023-01-16T00:16:20;2.25;;;1.45;;
75508;SDS011;64214;47.250;11.332;2023-01-16T00:16:31;2.47;;;1.60;;
75508;SDS011;64214;47.250;11.332;2023-01-16T00:16:42;2.15;;;1.45;;
75508;SDS011;64214;47.250;11.332;2023-01-16T00:16:54;1.92;;;1.38;;
75508;SDS011;64214;47.250;11.332;2023-01-16T00:17:05;2.40;;;1.30;;
75508;SDS011;64214;47.250;11.332;2023-01-16T00:17:16;2.58;;;1.40;;
75508;SDS011;64214;47.250;11.332;2023-01-16T00:17:27;2.50;;;1.27;;
75508;SDS011;64214;47.250;11.332;2023-01-16T00:17:38;1.83;;;1.15;;
75508;SDS011;64214;47.250;11.332;2023-01-16T00:17:49;1.65;;;1.23;;
75508;SDS011;64214;47.250;11.332;2023-01-16T00:18:00;2.05;;;1.38;;
75508;SDS011;64214;47.250;11.332;2023-01-16T00:18:11;2.58;;;1.40;;
75508;SDS011;64214;47.250;11.332;2023-01-16T00:18:23;2.83;;;1.50;;
75508;SDS011;64214;47.250;11.332;2023-01-16T00:18:34;2.60;;;1.58;;
75508;SDS011;64214;47.250;11.332;2023-01-16T00:18:45;2.38;;;1.60;;
75508;SDS011;64214;47.250;11.332;2023-01-16T00:18:56;2.63;;;1.60;;
75508;SDS011;64214;47.250;11.332;2023-01-16T00:19:08;2.88;;;1.60;;
75508;SDS011;64214;47.250;11.332;2023-01-16T00:19:19;2.25;;;1.55;;
75508;SDS011;64214;47.250;11.332;2023-01-16T00:19:30;1.98;;;1.50;;
75508;SDS011;64214;47.250;11.332;2023-01-16T00:19:41;2.25;;;1.60;;
75508;SDS011;64214;47.250;11.332;2023-01-16T00:19:52;2.70;;;1.60;;
75508;SDS011;64214;47.250;11.332;2023-01-16T00:20:03;2.53;;;1.60;;
75508;SDS011;64214;47.250;11.332;2023-01-16T00:20:15;2.07;;;1.67;;
75508;SDS011;64214;47.250;11.332;2023-01-16T00:20:27;2.17;;;1.65;;
75508;SDS011;64214;47.250;11.332;2023-01-16T00:20:38;2.17;;;1.52;;
75508;SDS011;64214;47.250;11.332;2023-01-16T00:20:49;2.10;;;1.40;;
75508;SDS011;64214;47.250;11.332;2023-01-16T00:21:00;2.45;;;1.50;;
75508;SDS011;64214;47.250;11.332;2023-01-16T00:21:12;2.33;;;1.40;;
75508;SDS011;64214;47.250;11.332;2023-01-16T00:21:23;2.08;;;1.42;;
75508;SDS011;64214;47.250;11.332;2023-01-16T00:21:38;2.30;;;1.50;;
75508;SDS011;64214;47.250;11.332;2023-01-16T00:21:49;2.20;;;1.70;;
75508;SDS011;64214;47.250;11.332;2023-01-16T00:22:00;2.35;;;1.77;;
75508;SDS011;64214;47.250;11.332;2023-01-16T00:22:11;2.28;;;1.88;;
75508;SDS011;64214;47.250;11.332;2023-01-16T00:22:22;2.47;;;1.98;;
75508;SDS011;64214;47.250;11.332;2023-01-16T00:22:33;2.55;;;2.00;;
75508;SDS011;64214;47.250;11.332;2023-01-16T00:22:44;3.08;;;1.98;;
75508;SDS011;64214;47.250;11.332;2023-01-16T00:22:55;3.25;;;1.90;;
75508;SDS011;64214;47.250;11.332;2023-01-16T00:23:07;3.13;;;1.90;;
75508;SDS011;64214;47.250;11.332;2023-01-16T00:23:18;2.45;;;1.75;;
75508;SDS011;64214;47.250;11.332;2023-01-16T00:23:29;2.08;;;1.70;;
75508;SDS011;64214;47.250;11.332;2023-01-16T00:23:40;1.85;;;1.60;;
75508;SDS011;64214;47.250;11.332;2023-01-16T00:23:52;2.60;;;1.77;;
75508;SDS011;64214;47.250;11.332;2023-01-16T00:24:04;2.67;;;1.60;;
75508;SDS011;64214;47.250;11.332;2023-01-16T00:24:17;2.72;;;1.60;;
75508;SDS011;64214;47.250;11.332;2023-01-16T00:24:28;2.72;;;1.55;;
75508;SDS011;64214;47.250;11.332;2023-01-16T00:24:39;2.72;;;1.70;;
75508;SDS011;64214;47.250;11.332;2023-01-16T00:24:50;2.80;;;1.70;;
75508;SDS011;64214;47.250;11.332;2023-01-16T00:25:01;3.00;;;1.85;;
75508;SDS011;64214;47.250;11.332;2023-01-16T00:25:12;2.50;;;1.70;;
75508;SDS011;64214;47.250;11.332;2023-01-16T00:25:23;2.05;;;1.70;;
75508;SDS011;64214;47.250;11.332;2023-01-16T00:25:38;2.47;;;1.50;;
75508;SDS011;64214;47.250;11.332;2023-01-16T00:25:49;3.30;;;1.85;;
75508;SDS011;64214;47.250;11.332;2023-01-16T00:26:03;2.47;;;1.90;;
75508;SDS011;64214;47.250;11.332;2023-01-16T00:26:15;2.08;;;1.77;;
75508;SDS011;64214;47.250;11.332;2023-01-16T00:26:27;1.95;;;1.65;;
75508;SDS011;64214;47.250;11.332;2023-01-16T00:26:40;1.92;;;1.58;;
75508;SDS011;64214;47.250;11.332;2023-01-16T00:26:51;2.25;;;1.60;;
75508;SDS011;64214;47.250;11.332;2023-01-16T00:27:02;2.22;;;1.42;;
75508;SDS011;64214;47.250;11.332;2023-01-16T00:27:13;2.55;;;1.60;;
75508;SDS011;64214;47.250;11.332;2023-01-16T00:27:24;2.30;;;1.60;;
75508;SDS011;64214;47.250;11.332;2023-01-16T00:27:36;1.90;;;1.60;;
75508;SDS011;64214;47.250;11.332;2023-01-16T00:27:47;1.83;;;1.50;;
75508;SDS011;64214;47.250;11.332;2023-01-16T00:27:58;1.92;;;1.58;;
75508;SDS011;64214;47.250;11.332;2023-01-16T00:28:10;2.10;;;1.58;;
75508;SDS011;64214;47.250;11.332;2023-01-16T00:28:22;2.20;;;1.70;;
75508;SDS011;64214;47.250;11.332;2023-01-16T00:28:33;2.15;;;1.70;;
75508;SDS011;64214;47.250;11.332;2023-01-16T00:28:44;2.22;;;1.88;;
75508;SDS011;64214;47.250;11.332;2023-01-16T00:28:55;2.47;;;1.90;;
75508;SDS011;64214;47.250;11.332;2023-01-16T00:29:06;2.50;;;1.90;;
75508;SDS011;64214;47.250;11.332;2023-01-16T00:29:17;2.63;;;2.00;;
75508;SDS011;64214;47.250;11.332;2023-01-16T00:29:28;2.83;;;1.80;;
75508;SDS011;64214;47.250;11.332;2023-01-16T00:29:39;2.67;;;1.77;;
75508;SDS011;64214;47.250;11.332;2023-01-16T00:29:50;2.30;;;1.67;;
75508;SDS011;64214;47.250;11.332;2023-01-16T00:30:02;2.70;;;1.70;;
75508;SDS011;64214;47.250;11.332;2023-01-16T00:30:14;2.80;;;1.77;;
75508;SDS011;64214;47.250;11.332;2023-01-16T00:30:25;2.80;;;1.80;;
75508;SDS011;64214;47.250;11.332;2023-01-16T00:30:36;2.60;;;1.90;;
75508;SDS011;64214;47.250;11.332;2023-01-16T00:30:48;2.25;;;1.80;;
75508;SDS011;64214;47.250;11.332;2023-01-16T00:30:59;1.98;;;1.60;;
75508;SDS011;64214;47.250;11.332;2023-01-16T00:31:10;2.30;;;1.60;;
75508;SDS011;64214;47.250;11.332;2023-01-16T00:31:22;2.10;;;1.50;;
75508;SDS011;64214;47.250;11.332;2023-01-16T00:31:34;2.08;;;1.50;;
75508;SDS011;64214;47.250;11.332;2023-01-16T00:31:45;2.10;;;1.50;;
75508;SDS011;64214;47.250;11.332;2023-01-16T00:31:56;2.50;;;1.70;;
75508;SDS011;64214;47.250;11.332;2023-01-16T00:32:07;2.30;;;1.80;;
75508;SDS011;64214;47.250;11.332;2023-01-16T00:32:20;2.30;;;2.00;;
75508;SDS011;64214;47.250;11.332;2023-01-16T00:32:32;2.10;;;1.90;;
75508;SDS011;64214;47.250;11.332;2023-01-16T00:32:43;2.10;;;1.87;;
75508;SDS011;64214;47.250;11.332;2023-01-16T00:32:54;2.40;;;2.00;;
75508;SDS011;64214;47.250;11.332;2023-01-16T00:33:06;2.27;;;1.93;;
75508;SDS011;64214;47.250;11.332;2023-01-16T00:33:17;2.28;;;1.90;;
75508;SDS011;64214;47.250;11.332;2023-01-16T00:33:29;2.10;;;1.90;;
75508;SDS011;64214;47.250;11.332;2023-01-16T00:33:40;2.25;;;1.92;;
75508;SDS011;64214;47.250;11.332;2023-01-16T00:33:53;2.60;;;2.15;;
75508;SDS011;64214;47.250;11.332;2023-01-16T00:34:04;2.60;;;2.03;;
75508;SDS011;64214;47.250;11.332;2023-01-16T00:34:15;2.83;;;2.05;;
75508;SDS011;64214;47.250;11.332;2023-01-16T00:34:26;2.77;;;2.07;;
75508;SDS011;64214;47.250;11.332;2023-01-16T00:34:37;3.00;;;2.10;;
75508;SDS011;64214;47.250;11.332;2023-01-16T00:34:48;2.85;;;2.00;;
75508;SDS011;64214;47.250;11.332;2023-01-16T00:34:59;3.20;;;2.00;;
75508;SDS011;64214;47.250;11.332;2023-01-16T00:35:10;3.47;;;2.22;;
75508;SDS011;64214;47.250;11.332;2023-01-16T00:35:22;3.13;;;2.30;;
75508;SDS011;64214;47.250;11.332;2023-01-16T00:35:33;2.88;;;2.15;;
75508;SDS011;64214;47.250;11.332;2023-01-16T00:35:45;2.80;;;2.22;;
75508;SDS011;64214;47.250;11.332;2023-01-16T00:35:57;2.60;;;2.28;;
75508;SDS011;64214;47.250;11.332;2023-01-16T00:36:11;2.97;;;2.42;;
75508;SDS011;64214;47.250;11.332;2023-01-16T00:36:22;3.30;;;2.30;;
75508;SDS011;64214;47.250;11.332;2023-01-16T00:36:34;3.20;;;2.30;;
75508;SDS011;64214;47.250;11.332;2023-01-16T00:36:45;3.00;;;2.33;;
75508;SDS011;64214;47.250;11.332;2023-01-16T00:36:56;2.95;;;2.40;;
75508;SDS011;64214;47.250;11.332;2023-01-16T00:37:07;2.72;;;2.38;;
75508;SDS011;64214;47.250;11.332;2023-01-16T00:37:18;2.95;;;2.20;;
75508;SDS011;64214;47.250;11.332;2023-01-16T00:37:29;3.20;;;2.15;;
75508;SDS011;64214;47.250;11.332;2023-01-16T00:37:40;3.55;;;2.30;;
75508;SDS011;64214;47.250;11.332;2023-01-16T00:37:51;3.67;;;2.30;;
75508;SDS011;64214;47.250;11.332;2023-01-16T00:38:03;3.22;;;2.40;;
75508;SDS011;64214;47.250;11.332;2023-01-16T00:38:14;3.08;;;2.28;;
75508;SDS011;64214;47.250;11.332;2023-01-16T00:38:25;2.83;;;2.40;;
75508;SDS011;64214;47.250;11.332;2023-01-16T00:38:36;2.80;;;2.27;;
75508;SDS011;64214;47.250;11.332;2023-01-16T00:38:48;3.55;;;2.70;;
75508;SDS011;64214;47.250;11.332;2023-01-16T00:38:59;4.22;;;2.70;;
75508;SDS011;64214;47.250;11.332;2023-01-16T00:39:10;4.50;;;2.67;;
75508;SDS011;64214;47.250;11.332;2023-01-16T00:39:21;3.35;;;2.40;;
75508;SDS011;64214;47.250;11.332;2023-01-16T00:39:33;2.90;;;2.50;;
75508;SDS011;64214;47.250;11.332;2023-01-16T00:39:44;2.90;;;2.58;;
75508;SDS011;64214;47.250;11.332;2023-01-16T00:39:55;3.00;;;2.53;;
75508;SDS011;64214;47.250;11.332;2023-01-16T00:40:06;2.80;;;2.40;;
75508;SDS011;64214;47.250;11.332;2023-01-16T00:40:19;2.78;;;2.40;;
75508;SDS011;64214;47.250;11.332;2023-01-16T00:40:30;2.75;;;2.47;;
75508;SDS011;64214;47.250;11.332;2023-01-16T00:40:41;3.33;;;2.63;;
75508;SDS011;64214;47.250;11.332;2023-01-16T00:40:52;3.85;;;2.63;;
75508;SDS011;64214;47.250;11.332;2023-01-16T00:41:03;3.80;;;2.60;;
75508;SDS011;64214;47.250;11.332;2023-01-16T00:41:15;3.80;;;2.67;;
75508;SDS011;64214;47.250;11.332;2023-01-16T00:41:26;3.78;;;2.65;;
75508;SDS011;64214;47.250;11.332;2023-01-16T00:41:37;3.67;;;2.72;;
75508;SDS011;64214;47.250;11.332;2023-01-16T00:41:48;3.38;;;2.72;;
75508;SDS011;64214;47.250;11.332;2023-01-16T00:41:59;3.25;;;2.80;;
75508;SDS011;64214;47.250;11.332;2023-01-16T00:42:10;3.17;;;2.70;;
75508;SDS011;64214;47.250;11.332;2023-01-16T00:42:21;3.28;;;2.70;;
75508;SDS011;64214;47.250;11.332;2023-01-16T00:42:32;3.40;;;2.70;;
75508;SDS011;64214;47.250;11.332;2023-01-16T00:42:44;3.22;;;2.60;;
75508;SDS011;64214;47.250;11.332;2023-01-16T00:42:55;3.38;;;2.80;;
75508;SDS011;64214;47.250;11.332;2023-01-16T00:43:06;3.63;;;2.97;;
75508;SDS011;64214;47.250;11.332;2023-01-16T00:43:17;3.88;;;2.85;;
75508;SDS011;64214;47.250;11.332;2023-01-16T00:43:28;3.35;;;2.63;;
75508;SDS011;64214;47.250;11.332;2023-01-16T00:43:40;3.50;;;2.70;;
75508;SDS011;64214;47.250;11.332;2023-01-16T00:43:51;3.50;;;2.85;;
75508;SDS011;64214;47.250;11.332;2023-01-16T00:44:02;3.83;;;2.97;;
75508;SDS011;64214;47.250;11.332;2023-01-16T00:44:14;3.75;;;2.92;;
75508;SDS011;64214;47.250;11.332;2023-01-16T00:44:25;3.63;;;3.00;;
75508;SDS011;64214;47.250;11.332;2023-01-16T00:44:36;3.50;;;2.92;;
75508;SDS011;64214;47.250;11.332;2023-01-16T00:44:47;3.70;;;2.90;;
75508;SDS011;64214;47.250;11.332;2023-01-16T00:44:58;3.58;;;2.80;;
75508;SDS011;64214;47.250;11.332;2023-01-16T00:45:09;3.47;;;2.90;;
75508;SDS011;64214;47.250;11.332;2023-01-16T00:45:21;3.65;;;2.92;;
75508;SDS011;64214;47.250;11.332;2023-01-16T00:45:32;3.92;;;2.92;;
75508;SDS011;64214;47.250;11.332;2023-01-16T00:45:43;4.30;;;2.80;;
75508;SDS011;64214;47.250;11.332;2023-01-16T00:45:54;4.25;;;3.03;;
75508;SDS011;64214;47.250;11.332;2023-01-16T00:46:07;4.38;;;3.13;;
75508;SDS011;64214;47.250;11.332;2023-01-16T00:46:18;3.60;;;3.08;;
75508;SDS011;64214;47.250;11.332;2023-01-16T00:46:29;3.70;;;2.92;;
75508;SDS011;64214;47.250;11.332;2023-01-16T00:46:40;3.22;;;2.92;;
75508;SDS011;64214;47.250;11.332;2023-01-16T00:46:51;3.38;;;2.97;;
75508;SDS011;64214;47.250;11.332;2023-01-16T00:47:02;3.53;;;3.00;;
75508;SDS011;64214;47.250;11.332;2023-01-16T00:47:13;4.20;;;3.00;;
75508;SDS011;64214;47.250;11.332;2023-01-16T00:47:24;4.22;;;2.95;;
75508;SDS011;64214;47.250;11.332;2023-01-16T00:47:36;3.80;;;2.80;;
75508;SDS011;64214;47.250;11.332;2023-01-16T00:47:47;3.55;;;2.85;;
75508;SDS011;64214;47.250;11.332;2023-01-16T00:47:58;3.80;;;2.85;;
75508;SDS011;64214;47.250;11.332;2023-01-16T00:48:09;4.28;;;2.88;;
75508;SDS011;64214;47.250;11.332;2023-01-16T00:48:20;3.95;;;3.05;;
75508;SDS011;64214;47.250;11.332;2023-01-16T00:48:31;4.15;;;3.13;;
75508;SDS011;64214;47.250;11.332;2023-01-16T00:48:42;3.90;;;3.05;;
75508;SDS011;64214;47.250;11.332;2023-01-16T00:48:53;3.92;;;3.05;;
75508;SDS011;64214;47.250;11.332;2023-01-16T00:49:05;3.80;;;3.00;;
75508;SDS011;64214;47.250;11.332;2023-01-16T00:49:16;4.22;;;3.20;;
75508;SDS011;64214;47.250;11.332;2023-01-16T00:49:27;4.75;;;3.38;;
75508;SDS011;64214;47.250;11.332;2023-01-16T00:49:38;4.75;;;3.40;;
75508;SDS011;64214;47.250;11.332;2023-01-16T00:49:50;4.25;;;3.30;;
75508;SDS011;64214;47.250;11.332;2023-01-16T00:50:01;3.83;;;3.10;;
75508;SDS011;64214;47.250;11.332;2023-01-16T00:50:12;3.72;;;3.00;;
75508;SDS011;64214;47.250;11.332;2023-01-16T00:50:23;3.72;;;3.05;;
75508;SDS011;64214;47.250;11.332;2023-01-16T00:50:34;4.03;;;3.03;;
75508;SDS011;64214;47.250;11.332;2023-01-16T00:50:45;3.92;;;3.00;;
75508;SDS011;64214;47.250;11.332;2023-01-16T00:50:56;3.67;;;2.90;;
75508;SDS011;64214;47.250;11.332;2023-01-16T00:51:08;4.50;;;3.20;;
75508;SDS011;64214;47.250;11.332;2023-01-16T00:51:19;4.15;;;3.33;;
75508;SDS011;64214;47.250;11.332;2023-01-16T00:51:30;4.15;;;3.35;;
75508;SDS011;64214;47.250;11.332;2023-01-16T00:51:41;3.67;;;3.10;;
75508;SDS011;64214;47.250;11.332;2023-01-16T00:51:52;4.13;;;3.17;;
75508;SDS011;64214;47.250;11.332;2023-01-16T00:52:04;4.35;;;3.25;;
75508;SDS011;64214;47.250;11.332;2023-01-16T00:52:15;4.32;;;3.15;;
75508;SDS011;64214;47.250;11.332;2023-01-16T00:52:26;4.20;;;3.17;;
75508;SDS011;64214;47.250;11.332;2023-01-16T00:52:37;4.32;;;3.20;;
75508;SDS011;64214;47.250;11.332;2023-01-16T00:52:48;4.25;;;3.28;;
75508;SDS011;64214;47.250;11.332;2023-01-16T00:53:00;4.40;;;3.35;;
75508;SDS011;64214;47.250;11.332;2023-01-16T00:53:11;4.53;;;3.45;;
75508;SDS011;64214;47.250;11.332;2023-01-16T00:53:22;4.45;;;3.30;;
75508;SDS011;64214;47.250;11.332;2023-01-16T00:53:33;3.90;;;2.85;;
75508;SDS011;64214;47.250;11.332;2023-01-16T00:53:44;3.60;;;2.65;;
75508;SDS011;64214;47.250;11.332;2023-01-16T00:53:55;3.38;;;2.70;;
75508;SDS011;64214;47.250;11.332;2023-01-16T00:54:06;3.58;;;2.90;;
75508;SDS011;64214;47.250;11.332;2023-01-16T00:54:17;3.78;;;3.05;;
75508;SDS011;64214;47.250;11.332;2023-01-16T00:54:28;3.65;;;3.03;;
75508;SDS011;64214;47.250;11.332;2023-01-16T00:54:40;3.50;;;3.05;;
75508;SDS011;64214;47.250;11.332;2023-01-16T00:54:51;3.20;;;2.80;;
75508;SDS011;64214;47.250;11.332;2023-01-16T00:55:02;3.13;;;2.83;;
75508;SDS011;64214;47.250;11.332;2023-01-16T00:55:13;3.10;;;2.80;;
75508;SDS011;64214;47.250;11.332;2023-01-16T00:55:24;3.30;;;3.00;;
75508;SDS011;64214;47.250;11.332;2023-01-16T00:55:35;3.60;;;3.22;;
75508;SDS011;64214;47.250;11.332;2023-01-16T00:55:47;3.38;;;3.00;;
75508;SDS011;64214;47.250;11.332;2023-01-16T00:55:58;3.28;;;2.75;;
75508;SDS011;64214;47.250;11.332;2023-01-16T00:56:09;3.50;;;2.78;;
75508;SDS011;64214;47.250;11.332;2023-01-16T00:56:20;4.45;;;3.10;;
75508;SDS011;64214;47.250;11.332;2023-01-16T00:56:31;4.47;;;3.40;;
75508;SDS011;64214;47.250;11.332;2023-01-16T00:56:42;3.95;;;3.25;;
75508;SDS011;64214;47.250;11.332;2023-01-16T00:56:53;3.88;;;3.03;;
75508;SDS011;64214;47.250;11.332;2023-01-16T00:57:05;3.78;;;2.90;;
75508;SDS011;64214;47.250;11.332;2023-01-16T00:57:16;3.72;;;3.08;;
75508;SDS011;64214;47.250;11.332;2023-01-16T00:57:27;3.88;;;3.20;;
75508;SDS011;64214;47.250;11.332;2023-01-16T00:57:38;4.03;;;3.20;;
75508;SDS011;64214;47.250;11.332;2023-01-16T00:57:49;4.35;;;3.10;;
75508;SDS011;64214;47.250;11.332;2023-01-16T00:58:00;4.40;;;3.10;;
75508;SDS011;64214;47.250;11.332;2023-01-16T00:58:11;4.20;;;3.13;;
75508;SDS011;64214;47.250;11.332;2023-01-16T00:58:22;4.10;;;3.08;;
75508;SDS011;64214;47.250;11.332;2023-01-16T00:58:34;3.80;;;2.95;;
75508;SDS011;64214;47.250;11.332;2023-01-16T00:58:46;3.42;;;2.80;;
75508;SDS011;64214;47.250;11.332;2023-01-16T00:58:57;4.20;;;3.08;;
75508;SDS011;64214;47.250;11.332;2023-01-16T00:59:09;4.28;;;3.13;;
75508;SDS011;64214;47.250;11.332;2023-01-16T00:59:20;3.97;;;3.15;;
75508;SDS011;64214;47.250;11.332;2023-01-16T00:59:31;3.88;;;3.10;;
75508;SDS011;64214;47.250;11.332;2023-01-16T00:59:42;3.88;;;3.20;;
75508;SDS011;64214;47.250;11.332;2023-01-16T00:59:53;3.97;;;3.30;;
75508;SDS011;64214;47.250;11.332;2023-01-16T01:00:05;3.67;;;3.10;;
75508;SDS011;64214;47.250;11.332;2023-01-16T01:00:17;3.42;;;3.00;;
75508;SDS011;64214;47.250;11.332;2023-01-16T01:00:31;3.58;;;3.13;;
75508;SDS011;64214;47.250;11.332;2023-01-16T01:00:43;4.10;;;3.30;;
75508;SDS011;64214;47.250;11.332;2023-01-16T01:00:54;3.97;;;3.40;;
75508;SDS011;64214;47.250;11.332;2023-01-16T01:01:05;3.83;;;3.40;;
75508;SDS011;64214;47.250;11.332;2023-01-16T01:01:16;4.15;;;3.22;;
75508;SDS011;64214;47.250;11.332;2023-01-16T01:01:28;4.43;;;3.10;;
75508;SDS011;64214;47.250;11.332;2023-01-16T01:01:39;4.83;;;3.20;;
75508;SDS011;64214;47.250;11.332;2023-01-16T01:01:50;4.38;;;3.20;;
75508;SDS011;64214;47.250;11.332;2023-01-16T01:02:01;4.10;;;3.03;;
75508;SDS011;64214;47.250;11.332;2023-01-16T01:02:12;3.95;;;3.08;;
75508;SDS011;64214;47.250;11.332;2023-01-16T01:02:24;3.92;;;3.15;;
75508;SDS011;64214;47.250;11.332;2023-01-16T01:02:35;3.80;;;3.05;;
75508;SDS011;64214;47.250;11.332;2023-01-16T01:02:47;3.47;;;2.88;;
75508;SDS011;64214;47.250;11.332;2023-01-16T01:02:59;3.75;;;3.00;;
75508;SDS011;64214;47.250;11.332;2023-01-16T01:03:10;4.20;;;3.25;;
75508;SDS011;64214;47.250;11.332;2023-01-16T01:03:22;4.20;;;3.33;;
75508;SDS011;64214;47.250;11.332;2023-01-16T01:03:33;4.00;;;3.20;;
75508;SDS011;64214;47.250;11.332;2023-01-16T01:03:44;3.70;;;3.05;;
75508;SDS011;64214;47.250;11.332;2023-01-16T01:03:55;3.70;;;3.08;;
75508;SDS011;64214;47.250;11.332;2023-01-16T01:04:08;3.90;;;3.30;;
75508;SDS011;64214;47.250;11.332;2023-01-16T01:04:19;4.22;;;3.67;;
75508;SDS011;64214;47.250;11.332;2023-01-16T01:04:31;4.90;;;4.10;;
75508;SDS011;64214;47.250;11.332;2023-01-16T01:04:42;5.53;;;4.20;;
75508;SDS011;64214;47.250;11.332;2023-01-16T01:04:53;5.28;;;3.95;;
75508;SDS011;64214;47.250;11.332;2023-01-16T01:05:04;4.85;;;3.60;;
75508;SDS011;64214;47.250;11.332;2023-01-16T01:05:16;4.40;;;3.60;;
75508;SDS011;64214;47.250;11.332;2023-01-16T01:05:28;4.53;;;3.70;;
75508;SDS011;64214;47.250;11.332;2023-01-16T01:05:39;4.55;;;3.70;;
75508;SDS011;64214;47.250;11.332;2023-01-16T01:05:50;4.93;;;3.70;;
75508;SDS011;64214;47.250;11.332;2023-01-16T01:06:04;4.57;;;3.70;;
75508;SDS011;64214;47.250;11.332;2023-01-16T01:06:19;4.50;;;3.97;;
75508;SDS011;64214;47.250;11.332;2023-01-16T01:06:30;4.43;;;3.85;;
75508;SDS011;64214;47.250;11.332;2023-01-16T01:06:41;4.47;;;3.75;;
75508;SDS011;64214;47.250;11.332;2023-01-16T01:06:52;4.68;;;3.75;;
75508;SDS011;64214;47.250;11.332;2023-01-16T01:07:03;4.85;;;3.90;;
75508;SDS011;64214;47.250;11.332;2023-01-16T01:07:15;4.25;;;3.78;;
75508;SDS011;64214;47.250;11.332;2023-01-16T01:07:26;4.15;;;3.75;;